sensor_id;sensor_type;location;lat;lon;timestamp;P1;durP1;ratioP1;P2;durP2;ratioP2
43124;SDS011;49182;50.788;7.318;2024-03-08T00:04:32;15.82;;;9.48;;
43124;SDS011;49182;50.788;7.318;2024-03-08T00:09:35;17.92;;;9.73;;
43124;SDS011;49182;50.788;7.318;2024-03-08T00:14:37;16.45;;;10.13;;
43124;SDS011;49182;50.788;7.318;2024-03-08T00:19:39;14.15;;;9.20;;
43124;SDS011;49182;50.788;7.318;2024-03-08T00:24:42;14.52;;;11.27;;
43124;SDS011;49182;50.788;7.318;2024-03-08T00:29:44;18.98;;;9.18;;
43124;SDS011;49182;50.788;7.318;2024-03-08T00:34:46;17.73;;;11.48;;
43124;SDS011;49182;50.788;7.318;2024-03-08T00:39:49;19.85;;;9.70;;
43124;SDS011;49182;50.788;7.318;2024-03-08T00:49:53;14.00;;;10.15;;
43124;SDS011;49182;50.788;7.318;2024-03-08T00:54:56;16.38;;;10.18;;
43124;SDS011;49182;50.788;7.318;2024-03-08T00:59:58;18.77;;;11.40;;
43124;SDS011;49182;50.788;7.318;2024-03-08T01:05:00;15.48;;;9.18;;
43124;SDS011;49182;50.788;7.318;2024-03-08T01:10:03;18.63;;;10.00;;
43124;SDS011;49182;50.788;7.318;2024-03-08T01:15:06;17.48;;;10.77;;
43124;SDS011;49182;50.788;7.318;2024-03-08T01:20:08;19.25;;;10.55;;
43124;SDS011;49182;50.788;7.318;2024-03-08T01:25:13;20.27;;;12.18;;
43124;SDS011;49182;50.788;7.318;2024-03-08T01:30:15;17.88;;;9.63;;
43124;SDS011;49182;50.788;7.318;2024-03-08T01:35:17;17.42;;;9.35;;
43124;SDS011;49182;50.788;7.318;2024-03-08T01:40:20;18.80;;;8.95;;
43124;SDS011;49182;50.788;7.318;2024-03-08T01:50:23;18.35;;;10.05;;
43124;SDS011;49182;50.788;7.318;2024-03-08T01:55:26;16.25;;;10.40;;
43124;SDS011;49182;50.788;7.318;2024-03-08T02:00:28;17.42;;;10.07;;
43124;SDS011;49182;50.788;7.318;2024-03-08T02:05:30;19.38;;;9.50;;
43124;SDS011;49182;50.788;7.318;2024-03-08T02:10:33;21.10;;;10.85;;
43124;SDS011;49182;50.788;7.318;2024-03-08T02:15:50;18.55;;;11.00;;
43124;SDS011;49182;50.788;7.318;2024-03-08T02:20:54;16.45;;;10.07;;
43124;SDS011;49182;50.788;7.318;2024-03-08T02:25:57;22.00;;;9.57;;
43124;SDS011;49182;50.788;7.318;2024-03-08T02:30:58;15.70;;;8.90;;
43124;SDS011;49182;50.788;7.318;2024-03-08T02:36:02;15.15;;;9.35;;
43124;SDS011;49182;50.788;7.318;2024-03-08T02:41:04;16.90;;;9.50;;
43124;SDS011;49182;50.788;7.318;2024-03-08T02:46:05;15.60;;;10.35;;
43124;SDS011;49182;50.788;7.318;2024-03-08T02:51:08;15.45;;;9.50;;
43124;SDS011;49182;50.788;7.318;2024-03-08T02:56:10;15.50;;;10.75;;
43124;SDS011;49182;50.788;7.318;2024-03-08T03:01:12;18.98;;;11.07;;
43124;SDS011;49182;50.788;7.318;2024-03-08T03:06:15;15.45;;;8.95;;
43124;SDS011;49182;50.788;7.318;2024-03-08T03:11:16;21.70;;;12.15;;
43124;SDS011;49182;50.788;7.318;2024-03-08T03:16:18;19.60;;;11.05;;
43124;SDS011;49182;50.788;7.318;2024-03-08T03:21:21;18.80;;;9.93;;
43124;SDS011;49182;50.788;7.318;2024-03-08T03:26:23;18.02;;;11.65;;
43124;SDS011;49182;50.788;7.318;2024-03-08T03:31:25;19.95;;;10.02;;
43124;SDS011;49182;50.788;7.318;2024-03-08T03:36:28;18.42;;;10.68;;
43124;SDS011;49182;50.788;7.318;2024-03-08T03:41:30;15.50;;;9.93;;
43124;SDS011;49182;50.788;7.318;2024-03-08T03:46:31;19.17;;;9.98;;
43124;SDS011;49182;50.788;7.318;2024-03-08T03:51:35;18.98;;;11.07;;
43124;SDS011;49182;50.788;7.318;2024-03-08T03:56:36;16.48;;;9.68;;
43124;SDS011;49182;50.788;7.318;2024-03-08T04:01:41;14.40;;;8.20;;
43124;SDS011;49182;50.788;7.318;2024-03-08T04:06:45;19.48;;;10.95;;
43124;SDS011;49182;50.788;7.318;2024-03-08T04:11:46;17.38;;;8.82;;
43124;SDS011;49182;50.788;7.318;2024-03-08T04:16:48;14.15;;;8.18;;
43124;SDS011;49182;50.788;7.318;2024-03-08T04:21:51;20.58;;;8.68;;
43124;SDS011;49182;50.788;7.318;2024-03-08T04:26:53;16.83;;;9.15;;
43124;SDS011;49182;50.788;7.318;2024-03-08T04:31:55;22.60;;;10.18;;
43124;SDS011;49182;50.788;7.318;2024-03-08T04:36:58;20.10;;;11.82;;
43124;SDS011;49182;50.788;7.318;2024-03-08T04:42:01;18.75;;;13.00;;
43124;SDS011;49182;50.788;7.318;2024-03-08T04:47:06;17.58;;;10.05;;
43124;SDS011;49182;50.788;7.318;2024-03-08T04:52:09;14.85;;;8.70;;
43124;SDS011;49182;50.788;7.318;2024-03-08T04:57:11;17.55;;;9.68;;
43124;SDS011;49182;50.788;7.318;2024-03-08T05:02:13;16.02;;;8.80;;
43124;SDS011;49182;50.788;7.318;2024-03-08T05:07:16;12.10;;;8.32;;
43124;SDS011;49182;50.788;7.318;2024-03-08T05:12:17;19.05;;;9.20;;
43124;SDS011;49182;50.788;7.318;2024-03-08T05:17:19;14.82;;;8.38;;
43124;SDS011;49182;50.788;7.318;2024-03-08T05:22:22;15.50;;;9.15;;
43124;SDS011;49182;50.788;7.318;2024-03-08T05:27:24;18.23;;;10.43;;
43124;SDS011;49182;50.788;7.318;2024-03-08T05:32:26;18.23;;;10.48;;
43124;SDS011;49182;50.788;7.318;2024-03-08T05:37:32;15.02;;;9.07;;
43124;SDS011;49182;50.788;7.318;2024-03-08T05:42:34;20.95;;;12.25;;
43124;SDS011;49182;50.788;7.318;2024-03-08T05:47:35;17.10;;;12.10;;
43124;SDS011;49182;50.788;7.318;2024-03-08T05:52:38;14.13;;;9.23;;
43124;SDS011;49182;50.788;7.318;2024-03-08T05:57:40;17.23;;;9.25;;
43124;SDS011;49182;50.788;7.318;2024-03-08T06:02:43;18.30;;;10.88;;
43124;SDS011;49182;50.788;7.318;2024-03-08T06:07:46;21.63;;;9.15;;
43124;SDS011;49182;50.788;7.318;2024-03-08T06:12:48;18.63;;;10.07;;
43124;SDS011;49182;50.788;7.318;2024-03-08T06:17:49;16.38;;;8.30;;
43124;SDS011;49182;50.788;7.318;2024-03-08T06:22:52;17.92;;;9.45;;
43124;SDS011;49182;50.788;7.318;2024-03-08T06:27:54;20.73;;;10.00;;
43124;SDS011;49182;50.788;7.318;2024-03-08T06:32:56;23.05;;;11.35;;
43124;SDS011;49182;50.788;7.318;2024-03-08T06:37:59;20.50;;;10.15;;
43124;SDS011;49182;50.788;7.318;2024-03-08T06:43:01;17.83;;;9.55;;
43124;SDS011;49182;50.788;7.318;2024-03-08T06:48:03;20.23;;;10.27;;
43124;SDS011;49182;50.788;7.318;2024-03-08T06:53:07;18.13;;;9.30;;
43124;SDS011;49182;50.788;7.318;2024-03-08T06:58:08;17.95;;;11.13;;
43124;SDS011;49182;50.788;7.318;2024-03-08T07:03:10;18.13;;;10.38;;
43124;SDS011;49182;50.788;7.318;2024-03-08T07:08:13;15.60;;;8.73;;
43124;SDS011;49182;50.788;7.318;2024-03-08T07:13:15;19.83;;;11.48;;
43124;SDS011;49182;50.788;7.318;2024-03-08T07:18:16;20.85;;;12.00;;
43124;SDS011;49182;50.788;7.318;2024-03-08T07:23:19;18.83;;;10.68;;
43124;SDS011;49182;50.788;7.318;2024-03-08T07:28:21;21.30;;;10.95;;
43124;SDS011;49182;50.788;7.318;2024-03-08T07:33:23;15.10;;;11.45;;
43124;SDS011;49182;50.788;7.318;2024-03-08T07:38:26;19.65;;;11.60;;
43124;SDS011;49182;50.788;7.318;2024-03-08T07:43:28;27.42;;;13.57;;
43124;SDS011;49182;50.788;7.318;2024-03-08T07:48:30;19.27;;;10.60;;
43124;SDS011;49182;50.788;7.318;2024-03-08T07:53:33;19.38;;;10.95;;
43124;SDS011;49182;50.788;7.318;2024-03-08T07:58:35;18.73;;;11.02;;
43124;SDS011;49182;50.788;7.318;2024-03-08T08:03:37;31.30;;;12.57;;
43124;SDS011;49182;50.788;7.318;2024-03-08T08:08:40;20.48;;;10.15;;
43124;SDS011;49182;50.788;7.318;2024-03-08T08:13:42;23.38;;;11.98;;
43124;SDS011;49182;50.788;7.318;2024-03-08T08:18:44;19.90;;;9.70;;
43124;SDS011;49182;50.788;7.318;2024-03-08T08:23:47;21.30;;;11.55;;
43124;SDS011;49182;50.788;7.318;2024-03-08T08:28:48;23.13;;;12.35;;
43124;SDS011;49182;50.788;7.318;2024-03-08T08:33:50;22.95;;;12.02;;
43124;SDS011;49182;50.788;7.318;2024-03-08T08:38:54;20.40;;;11.55;;
43124;SDS011;49182;50.788;7.318;2024-03-08T08:43:55;18.95;;;11.07;;
43124;SDS011;49182;50.788;7.318;2024-03-08T08:49:14;19.20;;;11.20;;
43124;SDS011;49182;50.788;7.318;2024-03-08T08:54:17;16.90;;;8.88;;
43124;SDS011;49182;50.788;7.318;2024-03-08T08:59:19;18.70;;;10.18;;
43124;SDS011;49182;50.788;7.318;2024-03-08T09:04:24;18.13;;;10.05;;
43124;SDS011;49182;50.788;7.318;2024-03-08T09:09:27;20.80;;;10.07;;
43124;SDS011;49182;50.788;7.318;2024-03-08T09:14:29;18.73;;;11.32;;
43124;SDS011;49182;50.788;7.318;2024-03-08T09:19:30;15.07;;;9.57;;
43124;SDS011;49182;50.788;7.318;2024-03-08T09:24:33;15.85;;;8.73;;
43124;SDS011;49182;50.788;7.318;2024-03-08T09:29:35;14.93;;;10.32;;
43124;SDS011;49182;50.788;7.318;2024-03-08T09:34:37;12.93;;;8.13;;
43124;SDS011;49182;50.788;7.318;2024-03-08T09:39:40;13.55;;;7.63;;
43124;SDS011;49182;50.788;7.318;2024-03-08T09:44:45;13.52;;;7.40;;
43124;SDS011;49182;50.788;7.318;2024-03-08T09:49:47;10.57;;;7.85;;
43124;SDS011;49182;50.788;7.318;2024-03-08T09:54:50;15.68;;;8.15;;
43124;SDS011;49182;50.788;7.318;2024-03-08T09:59:52;16.77;;;8.90;;
43124;SDS011;49182;50.788;7.318;2024-03-08T10:04:54;13.50;;;6.95;;
43124;SDS011;49182;50.788;7.318;2024-03-08T10:09:57;13.18;;;7.68;;
43124;SDS011;49182;50.788;7.318;2024-03-08T10:14:59;13.32;;;8.05;;
43124;SDS011;49182;50.788;7.318;2024-03-08T10:20:00;11.68;;;6.55;;
43124;SDS011;49182;50.788;7.318;2024-03-08T10:25:04;13.82;;;8.13;;
43124;SDS011;49182;50.788;7.318;2024-03-08T10:30:08;14.75;;;7.63;;
43124;SDS011;49182;50.788;7.318;2024-03-08T10:35:12;13.73;;;8.65;;
43124;SDS011;49182;50.788;7.318;2024-03-08T10:40:17;12.60;;;6.95;;
43124;SDS011;49182;50.788;7.318;2024-03-08T10:45:23;15.85;;;8.60;;
43124;SDS011;49182;50.788;7.318;2024-03-08T10:50:31;15.20;;;7.82;;
43124;SDS011;49182;50.788;7.318;2024-03-08T10:55:35;11.02;;;7.30;;
43124;SDS011;49182;50.788;7.318;2024-03-08T11:00:40;13.20;;;7.72;;
43124;SDS011;49182;50.788;7.318;2024-03-08T11:05:42;11.63;;;7.13;;
43124;SDS011;49182;50.788;7.318;2024-03-08T11:10:49;10.50;;;6.57;;
43124;SDS011;49182;50.788;7.318;2024-03-08T11:15:52;12.93;;;7.03;;
43124;SDS011;49182;50.788;7.318;2024-03-08T11:20:53;12.55;;;7.65;;
43124;SDS011;49182;50.788;7.318;2024-03-08T11:25:57;9.73;;;6.18;;
43124;SDS011;49182;50.788;7.318;2024-03-08T11:36:26;10.85;;;7.78;;
43124;SDS011;49182;50.788;7.318;2024-03-08T11:41:29;12.02;;;7.35;;
43124;SDS011;49182;50.788;7.318;2024-03-08T11:46:31;12.57;;;7.18;;
43124;SDS011;49182;50.788;7.318;2024-03-08T11:51:33;13.27;;;6.93;;
43124;SDS011;49182;50.788;7.318;2024-03-08T11:56:36;14.35;;;8.15;;
43124;SDS011;49182;50.788;7.318;2024-03-08T12:01:38;13.35;;;7.28;;
43124;SDS011;49182;50.788;7.318;2024-03-08T12:06:40;9.57;;;5.90;;
43124;SDS011;49182;50.788;7.318;2024-03-08T12:11:44;12.13;;;7.18;;
43124;SDS011;49182;50.788;7.318;2024-03-08T12:16:49;11.18;;;6.97;;
43124;SDS011;49182;50.788;7.318;2024-03-08T12:21:52;11.70;;;6.00;;
43124;SDS011;49182;50.788;7.318;2024-03-08T12:26:56;11.38;;;7.35;;
43124;SDS011;49182;50.788;7.318;2024-03-08T12:31:58;10.63;;;6.60;;
43124;SDS011;49182;50.788;7.318;2024-03-08T12:37:01;10.38;;;6.20;;
43124;SDS011;49182;50.788;7.318;2024-03-08T12:42:05;10.48;;;5.65;;
43124;SDS011;49182;50.788;7.318;2024-03-08T12:47:07;12.40;;;7.10;;
43124;SDS011;49182;50.788;7.318;2024-03-08T12:52:09;9.23;;;5.97;;
43124;SDS011;49182;50.788;7.318;2024-03-08T13:02:14;9.85;;;5.57;;
43124;SDS011;49182;50.788;7.318;2024-03-08T13:07:16;9.95;;;5.88;;
43124;SDS011;49182;50.788;7.318;2024-03-08T13:12:19;11.43;;;6.50;;
43124;SDS011;49182;50.788;7.318;2024-03-08T13:17:21;11.55;;;6.22;;
43124;SDS011;49182;50.788;7.318;2024-03-08T13:22:23;10.70;;;6.05;;
43124;SDS011;49182;50.788;7.318;2024-03-08T13:27:26;11.20;;;5.72;;
43124;SDS011;49182;50.788;7.318;2024-03-08T13:32:28;9.50;;;4.97;;
43124;SDS011;49182;50.788;7.318;2024-03-08T13:37:30;11.32;;;7.00;;
43124;SDS011;49182;50.788;7.318;2024-03-08T13:42:33;14.07;;;6.63;;
43124;SDS011;49182;50.788;7.318;2024-03-08T13:47:35;11.38;;;6.13;;
43124;SDS011;49182;50.788;7.318;2024-03-08T13:52:36;13.00;;;7.70;;
43124;SDS011;49182;50.788;7.318;2024-03-08T13:57:39;9.48;;;5.75;;
43124;SDS011;49182;50.788;7.318;2024-03-08T14:02:41;10.98;;;5.97;;
43124;SDS011;49182;50.788;7.318;2024-03-08T14:07:44;10.10;;;6.07;;
43124;SDS011;49182;50.788;7.318;2024-03-08T14:12:47;13.43;;;7.28;;
43124;SDS011;49182;50.788;7.318;2024-03-08T14:17:52;9.63;;;6.90;;
43124;SDS011;49182;50.788;7.318;2024-03-08T14:22:54;13.07;;;6.90;;
43124;SDS011;49182;50.788;7.318;2024-03-08T14:27:58;9.82;;;5.88;;
43124;SDS011;49182;50.788;7.318;2024-03-08T14:33:00;10.35;;;6.10;;
43124;SDS011;49182;50.788;7.318;2024-03-08T14:43:06;9.35;;;4.82;;
43124;SDS011;49182;50.788;7.318;2024-03-08T14:48:08;10.48;;;5.35;;
43124;SDS011;49182;50.788;7.318;2024-03-08T14:53:10;9.48;;;4.97;;
43124;SDS011;49182;50.788;7.318;2024-03-08T14:58:13;10.18;;;5.78;;
43124;SDS011;49182;50.788;7.318;2024-03-08T15:03:15;10.07;;;5.00;;
43124;SDS011;49182;50.788;7.318;2024-03-08T15:08:17;10.60;;;5.60;;
43124;SDS011;49182;50.788;7.318;2024-03-08T15:13:20;11.63;;;6.75;;
43124;SDS011;49182;50.788;7.318;2024-03-08T15:18:23;11.38;;;7.28;;
43124;SDS011;49182;50.788;7.318;2024-03-08T15:23:26;12.00;;;5.50;;
43124;SDS011;49182;50.788;7.318;2024-03-08T15:28:29;11.10;;;5.82;;
43124;SDS011;49182;50.788;7.318;2024-03-08T15:33:31;8.73;;;5.97;;
43124;SDS011;49182;50.788;7.318;2024-03-08T15:38:34;10.68;;;6.07;;
43124;SDS011;49182;50.788;7.318;2024-03-08T15:43:37;10.20;;;6.50;;
43124;SDS011;49182;50.788;7.318;2024-03-08T15:48:39;10.55;;;6.75;;
43124;SDS011;49182;50.788;7.318;2024-03-08T15:53:40;12.38;;;7.30;;
43124;SDS011;49182;50.788;7.318;2024-03-08T15:58:43;11.45;;;7.00;;
43124;SDS011;49182;50.788;7.318;2024-03-08T16:03:45;13.98;;;6.85;;
43124;SDS011;49182;50.788;7.318;2024-03-08T16:08:47;14.50;;;8.00;;
43124;SDS011;49182;50.788;7.318;2024-03-08T16:13:50;12.35;;;6.50;;
43124;SDS011;49182;50.788;7.318;2024-03-08T16:18:52;13.50;;;6.97;;
43124;SDS011;49182;50.788;7.318;2024-03-08T16:23:54;12.43;;;8.50;;
43124;SDS011;49182;50.788;7.318;2024-03-08T16:28:57;13.50;;;8.00;;
43124;SDS011;49182;50.788;7.318;2024-03-08T16:33:58;14.60;;;9.05;;
43124;SDS011;49182;50.788;7.318;2024-03-08T16:39:00;9.60;;;6.60;;
43124;SDS011;49182;50.788;7.318;2024-03-08T16:44:03;13.45;;;6.72;;
43124;SDS011;49182;50.788;7.318;2024-03-08T16:49:05;12.73;;;6.80;;
43124;SDS011;49182;50.788;7.318;2024-03-08T16:54:07;14.77;;;6.55;;
43124;SDS011;49182;50.788;7.318;2024-03-08T16:59:10;14.95;;;8.93;;
43124;SDS011;49182;50.788;7.318;2024-03-08T17:04:12;11.60;;;7.88;;
43124;SDS011;49182;50.788;7.318;2024-03-08T17:09:14;14.80;;;8.13;;
43124;SDS011;49182;50.788;7.318;2024-03-08T17:14:17;14.35;;;8.35;;
43124;SDS011;49182;50.788;7.318;2024-03-08T17:19:19;14.68;;;7.45;;
43124;SDS011;49182;50.788;7.318;2024-03-08T17:24:20;14.85;;;7.22;;
43124;SDS011;49182;50.788;7.318;2024-03-08T17:29:23;14.30;;;7.65;;
43124;SDS011;49182;50.788;7.318;2024-03-08T17:34:25;17.40;;;8.05;;
43124;SDS011;49182;50.788;7.318;2024-03-08T17:39:27;16.60;;;8.45;;
43124;SDS011;49182;50.788;7.318;2024-03-08T17:44:30;13.10;;;8.27;;
43124;SDS011;49182;50.788;7.318;2024-03-08T17:49:35;13.43;;;8.25;;
43124;SDS011;49182;50.788;7.318;2024-03-08T17:54:36;16.83;;;8.57;;
43124;SDS011;49182;50.788;7.318;2024-03-08T17:59:39;18.73;;;9.13;;
43124;SDS011;49182;50.788;7.318;2024-03-08T18:04:41;13.15;;;7.38;;
43124;SDS011;49182;50.788;7.318;2024-03-08T18:09:43;15.02;;;8.07;;
43124;SDS011;49182;50.788;7.318;2024-03-08T18:14:46;12.32;;;7.07;;
43124;SDS011;49182;50.788;7.318;2024-03-08T18:19:48;17.70;;;8.88;;
43124;SDS011;49182;50.788;7.318;2024-03-08T18:24:51;16.00;;;8.80;;
43124;SDS011;49182;50.788;7.318;2024-03-08T18:29:55;13.27;;;7.60;;
43124;SDS011;49182;50.788;7.318;2024-03-08T18:34:56;16.33;;;10.02;;
43124;SDS011;49182;50.788;7.318;2024-03-08T18:39:58;11.98;;;8.10;;
43124;SDS011;49182;50.788;7.318;2024-03-08T18:45:02;12.93;;;7.20;;
43124;SDS011;49182;50.788;7.318;2024-03-08T18:50:04;13.43;;;8.13;;
43124;SDS011;49182;50.788;7.318;2024-03-08T18:55:08;14.63;;;8.20;;
43124;SDS011;49182;50.788;7.318;2024-03-08T19:00:13;14.35;;;7.97;;
43124;SDS011;49182;50.788;7.318;2024-03-08T19:05:16;13.38;;;6.88;;
43124;SDS011;49182;50.788;7.318;2024-03-08T19:10:18;9.93;;;6.40;;
43124;SDS011;49182;50.788;7.318;2024-03-08T19:15:24;11.32;;;6.18;;
43124;SDS011;49182;50.788;7.318;2024-03-08T19:20:28;13.18;;;7.18;;
43124;SDS011;49182;50.788;7.318;2024-03-08T19:30:34;14.23;;;7.55;;
43124;SDS011;49182;50.788;7.318;2024-03-08T19:35:35;12.77;;;8.02;;
43124;SDS011;49182;50.788;7.318;2024-03-08T19:40:37;14.82;;;7.00;;
43124;SDS011;49182;50.788;7.318;2024-03-08T19:45:41;13.30;;;8.15;;
43124;SDS011;49182;50.788;7.318;2024-03-08T19:50:43;19.27;;;7.43;;
43124;SDS011;49182;50.788;7.318;2024-03-08T19:55:45;13.10;;;7.30;;
43124;SDS011;49182;50.788;7.318;2024-03-08T20:00:48;14.55;;;8.88;;
43124;SDS011;49182;50.788;7.318;2024-03-08T20:05:51;17.77;;;11.05;;
43124;SDS011;49182;50.788;7.318;2024-03-08T20:10:53;14.32;;;9.50;;
43124;SDS011;49182;50.788;7.318;2024-03-08T20:15:56;14.15;;;7.85;;
43124;SDS011;49182;50.788;7.318;2024-03-08T20:20:58;15.55;;;8.25;;
43124;SDS011;49182;50.788;7.318;2024-03-08T20:25:59;15.75;;;7.72;;
43124;SDS011;49182;50.788;7.318;2024-03-08T20:31:02;13.85;;;7.68;;
43124;SDS011;49182;50.788;7.318;2024-03-08T20:36:05;14.18;;;8.77;;
43124;SDS011;49182;50.788;7.318;2024-03-08T20:41:07;15.57;;;8.48;;
43124;SDS011;49182;50.788;7.318;2024-03-08T20:46:11;18.70;;;10.43;;
43124;SDS011;49182;50.788;7.318;2024-03-08T20:51:14;14.05;;;8.30;;
43124;SDS011;49182;50.788;7.318;2024-03-08T20:56:16;13.35;;;7.88;;
43124;SDS011;49182;50.788;7.318;2024-03-08T21:01:19;11.82;;;6.65;;
43124;SDS011;49182;50.788;7.318;2024-03-08T21:06:21;14.18;;;7.18;;
43124;SDS011;49182;50.788;7.318;2024-03-08T21:11:22;16.08;;;7.80;;
43124;SDS011;49182;50.788;7.318;2024-03-08T21:16:26;15.63;;;9.35;;
43124;SDS011;49182;50.788;7.318;2024-03-08T21:26:30;13.43;;;6.07;;
43124;SDS011;49182;50.788;7.318;2024-03-08T21:31:33;13.70;;;6.80;;
43124;SDS011;49182;50.788;7.318;2024-03-08T21:36:34;10.43;;;6.63;;
43124;SDS011;49182;50.788;7.318;2024-03-08T21:41:36;12.98;;;7.32;;
43124;SDS011;49182;50.788;7.318;2024-03-08T21:46:40;12.57;;;6.65;;
43124;SDS011;49182;50.788;7.318;2024-03-08T21:51:42;13.13;;;6.63;;
43124;SDS011;49182;50.788;7.318;2024-03-08T21:56:43;13.93;;;7.65;;
43124;SDS011;49182;50.788;7.318;2024-03-08T22:01:46;11.10;;;6.28;;
43124;SDS011;49182;50.788;7.318;2024-03-08T22:11:50;11.20;;;6.28;;
43124;SDS011;49182;50.788;7.318;2024-03-08T22:16:53;11.85;;;6.35;;
43124;SDS011;49182;50.788;7.318;2024-03-08T22:21:55;12.65;;;7.32;;
43124;SDS011;49182;50.788;7.318;2024-03-08T22:26:57;10.88;;;6.20;;
43124;SDS011;49182;50.788;7.318;2024-03-08T22:32:00;9.27;;;5.82;;
43124;SDS011;49182;50.788;7.318;2024-03-08T22:37:02;13.43;;;6.82;;
43124;SDS011;49182;50.788;7.318;2024-03-08T22:42:04;10.93;;;6.05;;
43124;SDS011;49182;50.788;7.318;2024-03-08T22:47:07;12.63;;;6.97;;
43124;SDS011;49182;50.788;7.318;2024-03-08T22:57:11;9.02;;;6.05;;
43124;SDS011;49182;50.788;7.318;2024-03-08T23:02:14;12.48;;;6.32;;
43124;SDS011;49182;50.788;7.318;2024-03-08T23:07:15;10.02;;;6.28;;
43124;SDS011;49182;50.788;7.318;2024-03-08T23:12:17;9.45;;;5.32;;
43124;SDS011;49182;50.788;7.318;2024-03-08T23:17:20;11.20;;;6.15;;
43124;SDS011;49182;50.788;7.318;2024-03-08T23:22:22;8.07;;;4.70;;
43124;SDS011;49182;50.788;7.318;2024-03-08T23:27:24;13.25;;;5.70;;
43124;SDS011;49182;50.788;7.318;2024-03-08T23:32:27;9.23;;;5.82;;
43124;SDS011;49182;50.788;7.318;2024-03-08T23:37:28;9.65;;;5.35;;
43124;SDS011;49182;50.788;7.318;2024-03-08T23:42:30;12.00;;;6.40;;
43124;SDS011;49182;50.788;7.318;2024-03-08T23:47:33;10.48;;;4.93;;
43124;SDS011;49182;50.788;7.318;2024-03-08T23:57:37;9.23;;;6.40;;
